createdAt,value
2022-08-20T00:04:36.763Z,1011.67
2022-08-20T00:19:36.701Z,1011.55
2022-08-20T00:34:37.047Z,1011.58
2022-08-20T00:49:36.785Z,1011.45
2022-08-20T01:04:36.796Z,1011.41
2022-08-20T01:19:37.125Z,1011.31
2022-08-20T01:34:36.834Z,1011.49
2022-08-20T01:49:36.971Z,1011.63
2022-08-20T02:04:37.069Z,1011.77
2022-08-20T02:19:37.585Z,1011.72
2022-08-20T02:34:37.046Z,1011.74
2022-08-20T02:49:37.070Z,1011.54
2022-08-20T03:04:37.035Z,1011.49
2022-08-20T03:19:37.201Z,1011.40
2022-08-20T03:34:37.313Z,1011.49
2022-08-20T03:49:37.355Z,1011.26
2022-08-20T04:04:37.311Z,1011.19
2022-08-20T04:19:37.335Z,1011.37
2022-08-20T04:34:37.418Z,1011.55
2022-08-20T04:49:37.474Z,1011.65
2022-08-20T09:50:09.789Z,1011.77
2022-08-20T15:32:29.773Z,1013.38
2022-08-20T15:47:29.651Z,1013.08
2022-08-20T16:11:36.262Z,1013.16
2022-08-20T16:26:36.035Z,1013.06
2022-08-20T16:41:36.362Z,1013.02
2022-08-20T16:56:36.192Z,1013.10
2022-08-20T17:11:36.510Z,1013.05
2022-08-20T17:26:36.281Z,1013.03
2022-08-20T17:41:36.338Z,1013.19
2022-08-20T17:56:36.775Z,1013.31
2022-08-20T18:11:36.593Z,1013.38
2022-08-20T18:26:36.588Z,1013.54
2022-08-20T18:41:36.613Z,1013.56
2022-08-20T18:56:36.699Z,1013.62
2022-08-20T19:11:36.513Z,1013.69
2022-08-20T19:26:36.534Z,1013.79
2022-08-20T19:41:36.705Z,1013.89
2022-08-20T19:56:36.765Z,1014.07
2022-08-20T20:11:36.635Z,1014.14
2022-08-20T20:26:36.936Z,1014.13
2022-08-20T20:41:36.765Z,1014.14
2022-08-20T20:56:36.767Z,1014.08
2022-08-20T21:11:36.836Z,1014.03
2022-08-20T21:26:37.065Z,1014.00
2022-08-20T21:41:36.853Z,1014.09
2022-08-20T21:56:36.981Z,1014.09
2022-08-20T22:11:36.824Z,1014.10
2022-08-20T22:26:36.960Z,1014.08
2022-08-20T22:41:36.893Z,1014.10
2022-08-20T22:56:37.026Z,1014.15
2022-08-20T23:11:37.623Z,1014.06
2022-08-20T23:26:40.410Z,1014.06
2022-08-20T23:41:37.939Z,1013.94
2022-08-20T23:56:40.408Z,1013.74
